createdAt,value
2023-02-05T00:00:31.185Z,-1.53
2023-02-05T00:02:59.468Z,-1.55
2023-02-05T00:05:27.682Z,-1.53
2023-02-05T00:07:55.887Z,-1.40
2023-02-05T00:10:25.474Z,-1.44
2023-02-05T00:12:53.672Z,-1.57
2023-02-05T00:15:21.898Z,-1.55
2023-02-05T00:17:50.122Z,-1.52
2023-02-05T00:20:18.926Z,-1.47
2023-02-05T00:22:47.165Z,-1.70
2023-02-05T00:25:15.406Z,-1.67
2023-02-05T00:27:44.999Z,-1.70
2023-02-05T00:30:14.326Z,-1.68
2023-02-05T00:32:42.591Z,-1.74
2023-02-05T00:35:10.810Z,-1.88
2023-02-05T00:37:39.448Z,-1.77
2023-02-05T00:40:08.742Z,-1.76
2023-02-05T00:42:37.003Z,-1.84
2023-02-05T00:45:10.791Z,-1.85
2023-02-05T00:47:39.387Z,-1.93
2023-02-05T00:50:08.518Z,-1.95
2023-02-05T00:52:37.044Z,-1.87
2023-02-05T00:55:06.257Z,-1.99
2023-02-05T00:57:34.493Z,-2.05
2023-02-05T01:00:02.755Z,-2.18
2023-02-05T01:02:56.456Z,-2.12
2023-02-05T01:05:49.787Z,-2.12
2023-02-05T01:08:17.946Z,-2.21
2023-02-05T01:10:48.018Z,-2.20
2023-02-05T01:13:18.181Z,-2.24
2023-02-05T01:15:47.143Z,-2.05
2023-02-05T01:18:16.738Z,-2.12
2023-02-05T01:20:45.275Z,-2.13
2023-02-05T01:23:13.503Z,-2.17
2023-02-05T01:25:41.652Z,-2.35
2023-02-05T01:28:10.201Z,-2.31
2023-02-05T01:30:38.504Z,-2.33
2023-02-05T01:33:06.825Z,-2.33
2023-02-05T01:35:36.648Z,-2.40
2023-02-05T01:38:04.905Z,-2.49
2023-02-05T01:40:34.710Z,-2.53
2023-02-05T01:43:02.884Z,-2.49
2023-02-05T01:45:51.069Z,-2.61
2023-02-05T01:48:24.003Z,-2.50
2023-02-05T01:50:57.622Z,-2.53
2023-02-05T01:53:29.853Z,-2.53
2023-02-05T01:56:01.554Z,-2.44
2023-02-05T01:58:34.809Z,-2.54
2023-02-05T02:01:03.384Z,-2.49
2023-02-05T02:03:33.104Z,-1.69
2023-02-05T02:06:04.804Z,-2.44
2023-02-05T02:08:33.770Z,-2.48
2023-02-05T02:11:06.356Z,-2.47
2023-02-05T02:13:36.701Z,-2.57
2023-02-05T02:16:08.199Z,-2.62
2023-02-05T02:18:38.757Z,-2.65
2023-02-05T02:22:08.756Z,-2.74
2023-02-05T02:25:28.115Z,-2.87
2023-02-05T02:28:00.621Z,-3.06
2023-02-05T02:30:36.524Z,-3.03
2023-02-05T02:33:15.221Z,-3.12
2023-02-05T02:35:53.705Z,-2.97
2023-02-05T02:38:29.215Z,-3.08
2023-02-05T02:41:05.934Z,-3.07
2023-02-05T02:43:43.286Z,-2.91
2023-02-05T02:46:22.813Z,-3.05
2023-02-05T02:48:53.960Z,-3.06
2023-02-05T02:51:24.698Z,-2.93
2023-02-05T02:54:00.489Z,-3.00
2023-02-05T02:56:55.403Z,-3.00
2023-02-05T02:59:27.355Z,-4.19
2023-02-05T03:02:00.193Z,-3.01
2023-02-05T03:04:37.839Z,-3.10
2023-02-05T03:07:15.516Z,-3.64
2023-02-05T03:09:54.028Z,-2.96
2023-02-05T03:12:30.474Z,-2.88
2023-02-05T03:15:00.673Z,-2.99
2023-02-05T03:17:30.524Z,-2.97
2023-02-05T03:20:05.424Z,-3.08
2023-02-05T03:22:33.908Z,-3.15
2023-02-05T03:25:03.244Z,-3.19
2023-02-05T03:27:34.078Z,-3.10
2023-02-05T03:30:06.703Z,-3.12
2023-02-05T03:32:49.678Z,-3.04
2023-02-05T03:35:36.157Z,-3.11
2023-02-05T03:38:32.780Z,-3.13
2023-02-05T03:41:14.778Z,-3.09
2023-02-05T03:43:51.026Z,-3.11
2023-02-05T03:46:32.510Z,-3.14
2023-02-05T03:49:15.099Z,-3.11
2023-02-05T03:51:52.363Z,-3.23
2023-02-05T03:54:35.257Z,-3.03
2023-02-05T03:57:12.084Z,-3.04
2023-02-05T03:59:42.266Z,-3.00
2023-02-05T04:02:13.473Z,-3.07
2023-02-05T04:04:45.033Z,-2.90
2023-02-05T04:07:15.026Z,-2.96
2023-02-05T04:09:43.665Z,-3.00
2023-02-05T04:12:12.190Z,-3.09
2023-02-05T04:14:41.426Z,-2.88
2023-02-05T04:17:13.441Z,-2.91
2023-02-05T04:19:42.781Z,-2.94
2023-02-05T04:22:12.805Z,-3.04
2023-02-05T04:24:44.459Z,-2.99
2023-02-05T04:27:12.686Z,-3.00
2023-02-05T04:29:41.674Z,-2.93
2023-02-05T04:32:10.008Z,-3.00
2023-02-05T04:34:39.605Z,-3.05
2023-02-05T04:37:10.698Z,-3.03
2023-02-05T04:39:38.969Z,-2.87
2023-02-05T04:42:07.357Z,-3.08
2023-02-05T04:44:35.501Z,-4.52
2023-02-05T04:47:03.671Z,-3.06
2023-02-05T04:49:33.945Z,-2.93
2023-02-05T04:52:03.697Z,-2.84
2023-02-05T04:54:31.890Z,-2.74
2023-02-05T04:57:00.037Z,-2.83
2023-02-05T04:59:30.005Z,-2.57
2023-02-05T05:01:58.378Z,-2.64
2023-02-05T05:07:21.228Z,-2.65
2023-02-05T05:09:51.011Z,-2.71
2023-02-05T05:12:20.505Z,-2.71
2023-02-05T05:14:48.907Z,-2.68
2023-02-05T05:17:17.141Z,-2.78
2023-02-05T05:19:45.390Z,-2.67
2023-02-05T05:22:13.602Z,-2.77
2023-02-05T05:24:43.171Z,-2.78
2023-02-05T05:27:11.334Z,-2.64
2023-02-05T05:29:39.919Z,-2.52
2023-02-05T05:32:08.139Z,-2.50
2023-02-05T05:34:36.468Z,-2.40
2023-02-05T05:37:04.633Z,-2.47
2023-02-05T05:39:50.602Z,-2.37
2023-02-05T05:42:37.873Z,-2.35
2023-02-05T05:45:09.341Z,-2.34
2023-02-05T05:47:37.910Z,-2.39
2023-02-05T05:50:07.265Z,-2.22
2023-02-05T05:52:35.529Z,-2.31
2023-02-05T05:55:03.768Z,-2.17
2023-02-05T05:57:33.255Z,-2.27
2023-02-05T06:00:02.637Z,-2.19
2023-02-05T06:02:44.185Z,-2.05
2023-02-05T06:05:12.812Z,-2.83
2023-02-05T06:07:41.006Z,-2.07
2023-02-05T06:10:10.462Z,-2.06
2023-02-05T06:12:40.222Z,-1.95
2023-02-05T06:15:09.799Z,-2.02
2023-02-05T06:17:38.084Z,-2.07
2023-02-05T06:20:07.427Z,-1.97
2023-02-05T06:22:36.231Z,-1.96
2023-02-05T06:25:05.323Z,-1.99
2023-02-05T06:27:33.957Z,-2.09
2023-02-05T06:30:04.237Z,-2.19
2023-02-05T06:32:32.480Z,-2.06
2023-02-05T06:35:00.698Z,-2.11
2023-02-05T06:37:46.206Z,-2.21
2023-02-05T06:40:15.959Z,-2.20
2023-02-05T06:42:44.239Z,-2.14
2023-02-05T06:45:13.923Z,-2.14
2023-02-05T06:47:42.120Z,-2.17
2023-02-05T06:50:11.110Z,-2.27
2023-02-05T06:52:39.611Z,-3.13
2023-02-05T06:55:08.728Z,-3.13
2023-02-05T06:57:36.990Z,-2.40
2023-02-05T07:00:07.545Z,-2.30
2023-02-05T07:02:37.218Z,-2.22
2023-02-05T07:05:05.664Z,-2.15
2023-02-05T07:07:34.383Z,-2.26
2023-02-05T07:10:03.098Z,-2.22
2023-02-05T07:12:31.523Z,-2.10
2023-02-05T07:14:59.742Z,-2.06
2023-02-05T07:17:27.949Z,-1.92
2023-02-05T07:19:58.734Z,-1.87
2023-02-05T07:22:27.339Z,-1.67
2023-02-05T07:24:55.551Z,-1.67
2023-02-05T07:27:23.838Z,-1.54
2023-02-05T07:29:51.981Z,-1.54
2023-02-05T07:32:20.131Z,-1.45
2023-02-05T07:34:48.204Z,-1.39
2023-02-05T07:37:17.584Z,-1.39
2023-02-05T07:39:45.738Z,-1.39
2023-02-05T07:42:13.960Z,-1.39
2023-02-05T07:44:50.199Z,-1.22
2023-02-05T07:47:18.376Z,-1.26
2023-02-05T07:49:46.874Z,-1.22
2023-02-05T07:52:15.058Z,-1.12
2023-02-05T07:54:44.841Z,-1.05
2023-02-05T07:57:13.107Z,-1.05
2023-02-05T07:59:41.396Z,-1.09
2023-02-05T08:02:10.825Z,-1.04
2023-02-05T08:04:39.166Z,-1.07
2023-02-05T08:07:07.927Z,-1.20
2023-02-05T08:09:37.106Z,-1.27
2023-02-05T08:12:07.786Z,-1.15
2023-02-05T08:14:36.855Z,-0.93
2023-02-05T08:17:07.110Z,-0.55
2023-02-05T08:19:37.401Z,-0.88
2023-02-05T08:22:05.690Z,-0.67
2023-02-05T08:24:33.965Z,0.16
2023-02-05T08:27:02.215Z,-0.41
2023-02-05T08:29:32.177Z,-0.41
2023-02-05T08:32:00.891Z,-0.43
2023-02-05T08:34:29.424Z,-0.47
2023-02-05T08:36:57.836Z,-0.43
2023-02-05T08:39:26.916Z,-0.58
2023-02-05T08:41:57.020Z,-0.62
2023-02-05T08:44:25.774Z,-0.62
2023-02-05T08:46:55.323Z,-0.32
2023-02-05T08:49:23.731Z,-0.45
2023-02-05T08:51:52.197Z,-0.26
2023-02-05T08:54:20.626Z,-0.31
2023-02-05T08:56:51.931Z,-0.24
2023-02-05T08:59:20.890Z,-0.08
2023-02-05T09:02:14.248Z,-0.18
2023-02-05T09:04:44.166Z,-0.09
2023-02-05T09:07:20.414Z,0.09
2023-02-05T09:09:48.970Z,0.04
2023-02-05T09:12:17.512Z,0.17
2023-02-05T09:14:45.740Z,0.29
2023-02-05T09:17:14.455Z,0.11
2023-02-05T09:19:44.051Z,0.27
2023-02-05T09:22:12.344Z,0.28
2023-02-05T09:24:40.576Z,0.31
2023-02-05T09:27:08.821Z,0.39
2023-02-05T09:29:37.252Z,0.45
2023-02-05T09:32:06.152Z,0.57
2023-02-05T09:34:34.438Z,0.47
2023-02-05T09:37:04.076Z,0.60
2023-02-05T09:40:19.906Z,0.72
2023-02-05T09:42:32.885Z,0.64
2023-02-05T09:45:19.705Z,0.52
2023-02-05T09:47:59.036Z,0.53
2023-02-05T09:50:30.245Z,0.68
2023-02-05T09:53:05.780Z,0.65
2023-02-05T09:55:41.049Z,0.82
2023-02-05T09:58:15.009Z,0.83
2023-02-05T10:00:48.572Z,0.98
2023-02-05T10:03:27.076Z,1.08
2023-02-05T10:06:15.989Z,1.13
2023-02-05T10:08:57.456Z,1.05
2023-02-05T10:11:32.909Z,1.34
2023-02-05T10:14:13.594Z,1.28
2023-02-05T10:17:02.426Z,1.25
2023-02-05T10:19:53.132Z,1.27
2023-02-05T10:22:28.264Z,1.17
2023-02-05T10:25:19.801Z,1.23
2023-02-05T10:27:58.086Z,1.96
2023-02-05T10:30:32.282Z,1.41
2023-02-05T10:33:01.982Z,1.49
2023-02-05T10:35:44.318Z,1.45
2023-02-05T10:38:18.556Z,1.47
2023-02-05T10:40:48.179Z,1.56
2023-02-05T10:43:26.498Z,1.57
2023-02-05T10:45:56.526Z,1.61
2023-02-05T10:48:40.733Z,1.62
2023-02-05T10:51:14.075Z,0.60
2023-02-05T10:53:42.514Z,1.60
2023-02-05T10:56:18.764Z,1.60
2023-02-05T10:58:53.679Z,0.92
2023-02-05T11:01:29.760Z,1.60
2023-02-05T11:04:16.442Z,1.65
2023-02-05T11:06:48.731Z,1.74
2023-02-05T11:09:33.375Z,1.55
2023-02-05T11:12:17.613Z,1.59
2023-02-05T11:14:49.330Z,1.67
2023-02-05T11:17:24.509Z,1.79
2023-02-05T11:19:57.498Z,1.50
2023-02-05T11:22:30.162Z,1.72
2023-02-05T11:25:11.625Z,1.68
2023-02-05T11:27:41.245Z,1.60
2023-02-05T11:30:50.444Z,1.69
2023-02-05T11:33:27.934Z,1.74
2023-02-05T11:36:00.371Z,1.75
2023-02-05T11:38:37.453Z,1.85
2023-02-05T11:41:09.173Z,1.76
2023-02-05T11:43:46.553Z,1.78
2023-02-05T11:46:19.523Z,1.85
2023-02-05T11:48:55.056Z,1.93
2023-02-05T11:51:40.963Z,1.91
2023-02-05T11:54:22.512Z,1.84
2023-02-05T11:57:08.009Z,1.89
2023-02-05T11:59:38.166Z,1.89
2023-02-05T12:02:34.864Z,1.97
2023-02-05T12:05:13.696Z,1.96
2023-02-05T12:07:48.130Z,1.97
2023-02-05T12:10:28.841Z,2.00
2023-02-05T12:13:09.985Z,2.00
2023-02-05T12:15:46.457Z,2.07
2023-02-05T12:18:27.408Z,1.91
2023-02-05T12:21:13.592Z,1.86
2023-02-05T12:24:13.954Z,1.89
2023-02-05T12:26:46.113Z,1.92
2023-02-05T12:29:37.406Z,2.05
2023-02-05T12:32:17.880Z,1.85
2023-02-05T12:35:11.792Z,1.97
2023-02-05T12:37:49.296Z,1.75
2023-02-05T12:40:40.986Z,1.91
2023-02-05T12:43:26.212Z,1.71
2023-02-05T12:46:04.283Z,1.91
2023-02-05T12:48:53.544Z,1.88
2023-02-05T12:51:38.517Z,1.92
2023-02-05T12:54:26.478Z,1.93
2023-02-05T12:57:00.372Z,1.90
2023-02-05T12:59:40.285Z,2.00
2023-02-05T13:02:23.449Z,1.14
2023-02-05T13:05:12.398Z,1.86
2023-02-05T13:07:46.247Z,1.94
2023-02-05T13:10:20.092Z,1.97
2023-02-05T13:12:53.706Z,1.87
2023-02-05T13:15:25.359Z,1.99
2023-02-05T13:18:01.649Z,1.93
2023-02-05T13:20:55.722Z,2.07
2023-02-05T13:23:41.981Z,1.88
2023-02-05T13:26:32.385Z,1.99
2023-02-05T13:29:30.172Z,1.93
2023-02-05T13:32:14.676Z,2.06
2023-02-05T13:34:43.726Z,2.10
2023-02-05T13:37:34.577Z,2.07
2023-02-05T13:40:27.257Z,1.96
2023-02-05T13:43:26.074Z,2.09
2023-02-05T13:46:40.489Z,2.15
2023-02-05T13:49:54.159Z,2.08
2023-02-05T13:52:59.174Z,2.12
2023-02-05T13:55:52.438Z,2.19
2023-02-05T13:58:24.275Z,2.05
2023-02-05T14:01:01.429Z,2.04
2023-02-05T14:03:39.665Z,2.09
2023-02-05T14:06:21.734Z,2.00
2023-02-05T14:08:59.269Z,2.13
2023-02-05T14:11:27.489Z,2.10
2023-02-05T14:14:31.747Z,2.15
2023-02-05T14:17:01.610Z,2.20
2023-02-05T14:19:56.946Z,2.12
2023-02-05T14:22:39.053Z,1.95
2023-02-05T14:26:01.985Z,2.32
2023-02-05T14:28:49.585Z,2.17
2023-02-05T14:31:57.359Z,2.31
2023-02-05T14:34:50.177Z,2.10
2023-02-05T14:37:34.663Z,2.15
2023-02-05T14:40:32.932Z,1.99
2023-02-05T14:43:10.451Z,2.08
2023-02-05T14:45:47.725Z,2.09
2023-02-05T14:48:26.311Z,2.08
2023-02-05T14:51:06.767Z,2.13
2023-02-05T14:53:38.037Z,2.04
2023-02-05T14:56:07.068Z,2.06
2023-02-05T14:58:39.748Z,2.08
2023-02-05T15:01:45.835Z,1.90
2023-02-05T15:04:49.482Z,2.09
2023-02-05T15:07:24.002Z,1.98
2023-02-05T15:09:58.617Z,2.59
2023-02-05T15:12:56.204Z,1.96
2023-02-05T15:15:35.196Z,1.94
2023-02-05T15:18:11.626Z,1.97
2023-02-05T15:20:41.896Z,2.05
2023-02-05T15:23:23.522Z,2.15
2023-02-05T15:26:00.279Z,2.01
2023-02-05T15:28:35.161Z,2.01
2023-02-05T15:31:10.568Z,1.94
2023-02-05T15:33:49.722Z,2.08
2023-02-05T15:36:28.365Z,1.93
2023-02-05T15:39:10.554Z,1.95
2023-02-05T15:41:43.467Z,2.01
2023-02-05T15:44:24.889Z,2.10
2023-02-05T15:46:54.725Z,2.19
2023-02-05T15:49:39.104Z,2.04
2023-02-05T15:52:08.134Z,1.94
2023-02-05T15:54:38.062Z,2.06
2023-02-05T15:57:09.089Z,2.06
2023-02-05T15:59:37.396Z,2.07
2023-02-05T16:02:15.007Z,1.31
2023-02-05T16:04:44.608Z,1.92
2023-02-05T16:07:23.371Z,1.84
2023-02-05T16:09:56.111Z,1.90
2023-02-05T16:12:24.834Z,2.04
2023-02-05T16:15:05.103Z,1.88
2023-02-05T16:17:39.544Z,1.97
2023-02-05T16:20:22.168Z,1.98
2023-02-05T16:22:55.334Z,1.92
2023-02-05T16:25:38.507Z,1.99
2023-02-05T16:28:14.786Z,1.84
2023-02-05T16:30:49.532Z,1.80
2023-02-05T16:33:34.690Z,1.67
2023-02-05T16:36:07.845Z,1.66
2023-02-05T16:38:37.281Z,1.81
2023-02-05T16:41:23.107Z,1.76
2023-02-05T16:43:53.775Z,1.73
2023-02-05T16:46:30.583Z,1.61
2023-02-05T16:49:01.152Z,1.74
2023-02-05T16:51:38.463Z,1.29
2023-02-05T16:54:37.967Z,1.70
2023-02-05T16:57:11.461Z,1.72
2023-02-05T16:59:51.384Z,1.74
2023-02-05T17:02:29.348Z,1.78
2023-02-05T17:05:22.585Z,1.62
2023-02-05T17:07:56.897Z,1.77
2023-02-05T17:10:25.828Z,1.75
2023-02-05T17:13:01.051Z,1.76
2023-02-05T17:15:40.506Z,1.79
2023-02-05T17:18:22.815Z,1.79
2023-02-05T17:20:51.372Z,1.84
2023-02-05T17:23:20.851Z,1.76
2023-02-05T17:25:55.603Z,1.68
2023-02-05T17:28:27.471Z,1.73
2023-02-05T17:30:58.739Z,1.77
2023-02-05T17:33:29.493Z,1.66
2023-02-05T17:35:57.728Z,1.74
2023-02-05T17:38:27.240Z,1.70
2023-02-05T17:41:15.450Z,2.08
2023-02-05T17:43:43.658Z,1.84
2023-02-05T17:46:14.831Z,1.83
2023-02-05T17:48:44.682Z,1.70
2023-02-05T17:51:21.809Z,1.14
2023-02-05T17:53:52.399Z,1.01
2023-02-05T17:56:21.985Z,1.80
2023-02-05T17:58:52.111Z,1.74
2023-02-05T18:01:21.168Z,1.65
2023-02-05T18:03:49.487Z,1.81
2023-02-05T18:06:20.192Z,1.65
2023-02-05T18:08:48.384Z,1.74
2023-02-05T18:11:17.890Z,1.73
2023-02-05T18:13:46.096Z,1.63
2023-02-05T18:16:14.358Z,2.19
2023-02-05T18:18:43.057Z,1.98
2023-02-05T18:21:11.270Z,1.06
2023-02-05T18:23:39.520Z,1.80
2023-02-05T18:26:11.122Z,1.69
2023-02-05T18:28:41.104Z,1.78
2023-02-05T18:31:10.500Z,1.77
2023-02-05T18:33:39.095Z,1.56
2023-02-05T18:36:11.020Z,1.44
2023-02-05T18:38:40.165Z,1.41
2023-02-05T18:41:10.394Z,1.54
2023-02-05T18:43:40.630Z,1.63
2023-02-05T18:46:11.605Z,1.67
2023-02-05T18:48:41.043Z,1.51
2023-02-05T18:51:11.648Z,1.62
2023-02-05T18:53:43.207Z,1.68
2023-02-05T18:56:16.540Z,1.78
2023-02-05T18:58:52.256Z,1.68
2023-02-05T19:01:29.178Z,1.67
2023-02-05T19:04:10.096Z,1.48
2023-02-05T19:06:38.468Z,1.50
2023-02-05T19:09:06.666Z,1.58
2023-02-05T19:11:40.815Z,1.69
2023-02-05T19:14:14.409Z,1.68
2023-02-05T19:16:43.439Z,1.56
2023-02-05T19:19:14.271Z,1.47
2023-02-05T19:21:44.847Z,1.56
2023-02-05T19:24:14.794Z,1.64
2023-02-05T19:26:44.701Z,1.67
2023-02-05T19:29:17.491Z,1.80
2023-02-05T19:31:46.661Z,1.20
2023-02-05T19:34:15.150Z,1.52
2023-02-05T19:36:44.701Z,1.69
2023-02-05T19:39:14.352Z,1.65
2023-02-05T19:41:45.225Z,1.44
2023-02-05T19:44:15.088Z,1.49
2023-02-05T19:46:45.209Z,1.62
2023-02-05T19:49:15.882Z,1.64
2023-02-05T19:51:46.728Z,1.15
2023-02-05T19:54:15.946Z,1.65
2023-02-05T19:56:45.186Z,0.90
2023-02-05T19:59:16.691Z,1.47
2023-02-05T20:01:45.596Z,1.54
2023-02-05T20:04:17.524Z,1.50
2023-02-05T20:06:47.226Z,1.89
2023-02-05T20:09:18.313Z,1.34
2023-02-05T20:11:48.965Z,0.72
2023-02-05T20:14:18.766Z,1.52
2023-02-05T20:16:48.190Z,1.31
2023-02-05T20:19:18.144Z,1.41
2023-02-05T20:21:47.713Z,1.44
2023-02-05T20:24:17.352Z,1.43
2023-02-05T20:26:48.274Z,1.01
2023-02-05T20:29:35.770Z,1.44
2023-02-05T20:32:04.395Z,1.37
2023-02-05T20:34:36.075Z,1.49
2023-02-05T20:37:06.912Z,1.50
2023-02-05T20:39:39.624Z,1.34
2023-02-05T20:42:07.958Z,1.39
2023-02-05T20:44:38.131Z,1.36
2023-02-05T20:47:08.181Z,1.41
2023-02-05T20:49:38.125Z,1.43
2023-02-05T20:52:06.847Z,1.52
2023-02-05T20:54:37.233Z,1.39
2023-02-05T20:57:05.547Z,1.42
2023-02-05T20:59:34.501Z,1.46
2023-02-05T21:02:28.779Z,1.36
2023-02-05T21:04:57.410Z,1.33
2023-02-05T21:07:29.576Z,1.23
2023-02-05T21:09:59.230Z,1.41
2023-02-05T21:12:31.148Z,1.26
2023-02-05T21:14:59.500Z,1.20
2023-02-05T21:17:29.085Z,1.20
2023-02-05T21:19:57.315Z,1.24
2023-02-05T21:22:25.602Z,1.25
2023-02-05T21:24:53.798Z,1.11
2023-02-05T21:27:24.166Z,1.11
2023-02-05T21:29:52.514Z,1.12
2023-02-05T21:32:20.642Z,1.12
2023-02-05T21:34:50.266Z,-0.38
2023-02-05T21:37:18.686Z,0.98
2023-02-05T21:39:46.874Z,1.06
2023-02-05T21:42:15.138Z,1.22
2023-02-05T21:44:44.198Z,1.16
2023-02-05T21:47:12.369Z,1.22
2023-02-05T21:49:40.561Z,1.28
2023-02-05T21:52:10.186Z,1.31
2023-02-05T21:54:38.409Z,1.36
2023-02-05T21:57:08.328Z,1.43
2023-02-05T21:59:36.556Z,1.32
2023-02-05T22:02:04.765Z,1.40
2023-02-05T22:04:32.950Z,1.37
2023-02-05T22:07:01.133Z,1.30
2023-02-05T22:09:30.688Z,1.42
2023-02-05T22:12:03.603Z,1.40
2023-02-05T22:14:31.851Z,1.44
2023-02-05T22:17:00.370Z,1.34
2023-02-05T22:19:29.364Z,1.40
2023-02-05T22:21:57.575Z,1.34
2023-02-05T22:24:25.804Z,1.40
2023-02-05T22:26:55.488Z,1.35
2023-02-05T22:29:23.668Z,1.37
2023-02-05T22:31:54.093Z,1.47
2023-02-05T22:34:23.886Z,1.34
2023-02-05T22:36:52.091Z,1.46
2023-02-05T22:39:20.264Z,1.52
2023-02-05T22:41:48.480Z,1.48
2023-02-05T22:44:18.036Z,1.46
2023-02-05T22:46:46.315Z,1.41
2023-02-05T22:49:16.143Z,1.32
2023-02-05T22:51:45.117Z,1.25
2023-02-05T22:54:15.911Z,1.26
2023-02-05T22:56:44.449Z,1.25
2023-02-05T22:59:13.493Z,1.24
2023-02-05T23:01:43.080Z,1.09
2023-02-05T23:04:20.118Z,1.15
2023-02-05T23:06:48.731Z,1.13
2023-02-05T23:09:19.254Z,1.14
2023-02-05T23:11:47.600Z,1.19
2023-02-05T23:14:18.152Z,1.19
2023-02-05T23:16:49.280Z,1.10
2023-02-05T23:19:20.576Z,1.10
2023-02-05T23:21:49.766Z,1.04
2023-02-05T23:24:19.203Z,1.04
2023-02-05T23:26:50.829Z,0.49
2023-02-05T23:29:19.660Z,1.08
2023-02-05T23:31:49.448Z,1.12
2023-02-05T23:34:17.664Z,1.16
2023-02-05T23:36:46.066Z,1.18
2023-02-05T23:39:15.369Z,1.05
2023-02-05T23:41:43.551Z,0.97
2023-02-05T23:44:15.700Z,0.97
2023-02-05T23:46:45.752Z,1.00
2023-02-05T23:49:16.632Z,0.95
2023-02-05T23:51:44.981Z,0.97
2023-02-05T23:54:14.044Z,1.00
2023-02-05T23:56:42.764Z,0.96
2023-02-05T23:59:13.590Z,0.94
